sensor_id;sensor_type;location;lat;lon;timestamp;temperature;humidity
16767;DHT22;8501;49.926;8.404;2022-07-29T00:01:30;24.10;90.50
16767;DHT22;8501;49.926;8.404;2022-07-29T00:03:56;24.00;90.40
16767;DHT22;8501;49.926;8.404;2022-07-29T00:06:21;24.00;90.30
16767;DHT22;8501;49.926;8.404;2022-07-29T00:08:47;23.90;90.30
16767;DHT22;8501;49.926;8.404;2022-07-29T00:11:13;23.90;90.50
16767;DHT22;8501;49.926;8.404;2022-07-29T00:13:38;23.90;90.50
16767;DHT22;8501;49.926;8.404;2022-07-29T00:16:04;23.90;90.40
16767;DHT22;8501;49.926;8.404;2022-07-29T00:18:29;23.90;90.50
16767;DHT22;8501;49.926;8.404;2022-07-29T00:20:55;23.80;90.40
16767;DHT22;8501;49.926;8.404;2022-07-29T00:23:20;23.80;90.50
16767;DHT22;8501;49.926;8.404;2022-07-29T00:25:46;23.80;90.50
16767;DHT22;8501;49.926;8.404;2022-07-29T00:28:12;23.80;90.60
16767;DHT22;8501;49.926;8.404;2022-07-29T00:30:37;23.90;90.60
16767;DHT22;8501;49.926;8.404;2022-07-29T00:33:03;23.90;90.60
16767;DHT22;8501;49.926;8.404;2022-07-29T00:35:28;23.80;90.30
16767;DHT22;8501;49.926;8.404;2022-07-29T00:38:13;23.80;90.40
16767;DHT22;8501;49.926;8.404;2022-07-29T00:40:39;23.70;90.20
16767;DHT22;8501;49.926;8.404;2022-07-29T00:43:04;23.70;90.20
16767;DHT22;8501;49.926;8.404;2022-07-29T00:45:30;23.70;90.10
16767;DHT22;8501;49.926;8.404;2022-07-29T00:47:56;23.70;89.70
16767;DHT22;8501;49.926;8.404;2022-07-29T00:50:22;23.70;89.60
16767;DHT22;8501;49.926;8.404;2022-07-29T00:52:48;23.70;89.70
16767;DHT22;8501;49.926;8.404;2022-07-29T00:55:15;23.70;89.70
16767;DHT22;8501;49.926;8.404;2022-07-29T00:57:42;23.70;89.40
16767;DHT22;8501;49.926;8.404;2022-07-29T01:00:10;23.70;89.50
16767;DHT22;8501;49.926;8.404;2022-07-29T01:02:36;23.70;89.20
16767;DHT22;8501;49.926;8.404;2022-07-29T01:05:04;23.70;89.20
16767;DHT22;8501;49.926;8.404;2022-07-29T01:07:31;23.70;89.20
16767;DHT22;8501;49.926;8.404;2022-07-29T01:09:58;23.70;88.90
16767;DHT22;8501;49.926;8.404;2022-07-29T01:12:28;23.70;89.10
16767;DHT22;8501;49.926;8.404;2022-07-29T01:14:57;23.70;88.90
16767;DHT22;8501;49.926;8.404;2022-07-29T01:17:43;23.70;89.00
16767;DHT22;8501;49.926;8.404;2022-07-29T01:23:15;23.70;88.80
16767;DHT22;8501;49.926;8.404;2022-07-29T01:28:44;23.70;88.50
16767;DHT22;8501;49.926;8.404;2022-07-29T01:31:16;23.70;88.60
16767;DHT22;8501;49.926;8.404;2022-07-29T01:33:45;23.70;88.60
16767;DHT22;8501;49.926;8.404;2022-07-29T01:36:55;23.60;88.50
16767;DHT22;8501;49.926;8.404;2022-07-29T01:39:26;23.60;88.70
16767;DHT22;8501;49.926;8.404;2022-07-29T01:42:02;23.60;88.90
16767;DHT22;8501;49.926;8.404;2022-07-29T01:44:59;23.60;88.70
16767;DHT22;8501;49.926;8.404;2022-07-29T01:47:26;23.60;89.00
16767;DHT22;8501;49.926;8.404;2022-07-29T01:49:58;23.60;88.80
16767;DHT22;8501;49.926;8.404;2022-07-29T01:52:38;23.60;88.60
16767;DHT22;8501;49.926;8.404;2022-07-29T01:55:11;23.60;89.10
16767;DHT22;8501;49.926;8.404;2022-07-29T01:57:44;23.50;88.90
16767;DHT22;8501;49.926;8.404;2022-07-29T02:00:11;23.50;88.80
16767;DHT22;8501;49.926;8.404;2022-07-29T02:02:40;23.40;88.90
16767;DHT22;8501;49.926;8.404;2022-07-29T02:05:10;23.40;88.90
16767;DHT22;8501;49.926;8.404;2022-07-29T02:07:36;23.40;89.00
16767;DHT22;8501;49.926;8.404;2022-07-29T02:10:03;23.40;89.20
16767;DHT22;8501;49.926;8.404;2022-07-29T02:12:31;23.40;89.40
16767;DHT22;8501;49.926;8.404;2022-07-29T02:15:00;23.50;89.50
16767;DHT22;8501;49.926;8.404;2022-07-29T02:17:34;23.40;89.50
16767;DHT22;8501;49.926;8.404;2022-07-29T02:20:02;23.50;89.30
16767;DHT22;8501;49.926;8.404;2022-07-29T02:22:30;23.40;88.80
16767;DHT22;8501;49.926;8.404;2022-07-29T02:24:58;23.40;89.00
16767;DHT22;8501;49.926;8.404;2022-07-29T02:27:24;23.30;89.20
16767;DHT22;8501;49.926;8.404;2022-07-29T02:29:53;23.40;89.40
16767;DHT22;8501;49.926;8.404;2022-07-29T02:32:21;23.30;89.30
16767;DHT22;8501;49.926;8.404;2022-07-29T02:34:49;23.40;89.40
16767;DHT22;8501;49.926;8.404;2022-07-29T02:37:16;23.30;89.50
16767;DHT22;8501;49.926;8.404;2022-07-29T02:39:52;23.30;89.40
16767;DHT22;8501;49.926;8.404;2022-07-29T02:42:21;23.30;89.70
16767;DHT22;8501;49.926;8.404;2022-07-29T02:44:48;23.30;89.80
16767;DHT22;8501;49.926;8.404;2022-07-29T02:49:55;23.20;89.80
16767;DHT22;8501;49.926;8.404;2022-07-29T02:53:23;23.20;89.90
16767;DHT22;8501;49.926;8.404;2022-07-29T02:55:29;23.20;90.10
16767;DHT22;8501;49.926;8.404;2022-07-29T02:58:00;23.10;90.20
16767;DHT22;8501;49.926;8.404;2022-07-29T03:00:31;23.00;90.20
16767;DHT22;8501;49.926;8.404;2022-07-29T03:03:04;23.10;90.20
16767;DHT22;8501;49.926;8.404;2022-07-29T03:05:32;23.10;90.30
16767;DHT22;8501;49.926;8.404;2022-07-29T03:08:04;23.00;90.30
16767;DHT22;8501;49.926;8.404;2022-07-29T03:10:31;23.00;90.40
16767;DHT22;8501;49.926;8.404;2022-07-29T03:12:57;23.00;90.50
16767;DHT22;8501;49.926;8.404;2022-07-29T03:15:23;23.00;90.60
16767;DHT22;8501;49.926;8.404;2022-07-29T03:17:51;23.00;90.70
16767;DHT22;8501;49.926;8.404;2022-07-29T03:20:17;22.90;90.80
16767;DHT22;8501;49.926;8.404;2022-07-29T03:22:43;22.90;90.90
16767;DHT22;8501;49.926;8.404;2022-07-29T03:25:16;22.90;90.90
16767;DHT22;8501;49.926;8.404;2022-07-29T03:27:44;22.90;91.10
16767;DHT22;8501;49.926;8.404;2022-07-29T03:30:10;22.90;91.20
16767;DHT22;8501;49.926;8.404;2022-07-29T03:32:36;22.90;91.30
16767;DHT22;8501;49.926;8.404;2022-07-29T03:35:03;22.90;91.40
16767;DHT22;8501;49.926;8.404;2022-07-29T03:37:29;22.80;91.50
16767;DHT22;8501;49.926;8.404;2022-07-29T03:39:57;22.80;91.60
16767;DHT22;8501;49.926;8.404;2022-07-29T03:42:25;22.80;91.80
16767;DHT22;8501;49.926;8.404;2022-07-29T03:44:52;22.80;91.80
16767;DHT22;8501;49.926;8.404;2022-07-29T03:47:23;22.80;92.10
16767;DHT22;8501;49.926;8.404;2022-07-29T03:49:54;22.70;92.10
16767;DHT22;8501;49.926;8.404;2022-07-29T03:52:22;22.70;92.20
16767;DHT22;8501;49.926;8.404;2022-07-29T03:54:48;22.60;92.40
16767;DHT22;8501;49.926;8.404;2022-07-29T03:57:15;22.60;92.50
16767;DHT22;8501;49.926;8.404;2022-07-29T03:59:41;22.60;92.60
16767;DHT22;8501;49.926;8.404;2022-07-29T04:02:09;22.60;92.80
16767;DHT22;8501;49.926;8.404;2022-07-29T04:04:36;22.60;92.90
16767;DHT22;8501;49.926;8.404;2022-07-29T04:07:03;22.60;93.10
16767;DHT22;8501;49.926;8.404;2022-07-29T04:09:28;22.50;93.20
16767;DHT22;8501;49.926;8.404;2022-07-29T04:11:54;22.50;93.30
16767;DHT22;8501;49.926;8.404;2022-07-29T04:14:19;22.50;93.40
16767;DHT22;8501;49.926;8.404;2022-07-29T04:16:46;22.50;93.60
16767;DHT22;8501;49.926;8.404;2022-07-29T04:19:11;22.50;93.80
16767;DHT22;8501;49.926;8.404;2022-07-29T04:21:41;22.40;94.00
16767;DHT22;8501;49.926;8.404;2022-07-29T04:24:07;22.40;94.20
16767;DHT22;8501;49.926;8.404;2022-07-29T04:26:33;22.30;94.40
16767;DHT22;8501;49.926;8.404;2022-07-29T04:28:59;22.30;94.70
16767;DHT22;8501;49.926;8.404;2022-07-29T04:31:25;22.30;94.90
16767;DHT22;8501;49.926;8.404;2022-07-29T04:33:50;22.20;95.10
16767;DHT22;8501;49.926;8.404;2022-07-29T04:36:16;22.20;95.30
16767;DHT22;8501;49.926;8.404;2022-07-29T04:38:41;22.20;95.50
16767;DHT22;8501;49.926;8.404;2022-07-29T04:41:07;22.20;95.60
16767;DHT22;8501;49.926;8.404;2022-07-29T04:43:34;22.20;95.80
16767;DHT22;8501;49.926;8.404;2022-07-29T04:45:59;22.10;96.30
16767;DHT22;8501;49.926;8.404;2022-07-29T04:48:26;22.10;96.10
16767;DHT22;8501;49.926;8.404;2022-07-29T04:50:51;22.00;96.40
16767;DHT22;8501;49.926;8.404;2022-07-29T04:53:17;22.00;96.60
16767;DHT22;8501;49.926;8.404;2022-07-29T04:55:43;22.00;96.70
16767;DHT22;8501;49.926;8.404;2022-07-29T05:00:41;21.90;96.80
16767;DHT22;8501;49.926;8.404;2022-07-29T05:03:07;21.90;96.90
16767;DHT22;8501;49.926;8.404;2022-07-29T05:05:32;21.90;96.90
16767;DHT22;8501;49.926;8.404;2022-07-29T05:07:58;22.00;97.00
16767;DHT22;8501;49.926;8.404;2022-07-29T05:10:24;21.90;97.10
16767;DHT22;8501;49.926;8.404;2022-07-29T05:12:50;21.90;97.30
16767;DHT22;8501;49.926;8.404;2022-07-29T05:15:15;21.90;97.50
16767;DHT22;8501;49.926;8.404;2022-07-29T05:17:43;21.90;97.80
16767;DHT22;8501;49.926;8.404;2022-07-29T05:20:08;21.90;98.10
16767;DHT22;8501;49.926;8.404;2022-07-29T05:22:34;21.90;98.00
16767;DHT22;8501;49.926;8.404;2022-07-29T05:25:00;22.00;98.10
16767;DHT22;8501;49.926;8.404;2022-07-29T05:27:25;22.00;98.20
16767;DHT22;8501;49.926;8.404;2022-07-29T05:29:51;22.00;98.30
16767;DHT22;8501;49.926;8.404;2022-07-29T05:32:16;22.00;98.40
16767;DHT22;8501;49.926;8.404;2022-07-29T05:34:42;22.00;98.40
16767;DHT22;8501;49.926;8.404;2022-07-29T05:37:08;22.10;98.60
16767;DHT22;8501;49.926;8.404;2022-07-29T05:39:33;22.00;98.60
16767;DHT22;8501;49.926;8.404;2022-07-29T05:41:59;22.00;98.80
16767;DHT22;8501;49.926;8.404;2022-07-29T05:44:25;22.10;98.80
16767;DHT22;8501;49.926;8.404;2022-07-29T05:46:50;22.10;98.80
16767;DHT22;8501;49.926;8.404;2022-07-29T05:49:16;22.20;99.00
16767;DHT22;8501;49.926;8.404;2022-07-29T05:51:41;22.20;98.90
16767;DHT22;8501;49.926;8.404;2022-07-29T05:54:07;22.20;98.70
16767;DHT22;8501;49.926;8.404;2022-07-29T05:56:33;22.20;98.90
16767;DHT22;8501;49.926;8.404;2022-07-29T05:58:58;22.30;98.80
16767;DHT22;8501;49.926;8.404;2022-07-29T06:01:24;22.30;98.70
16767;DHT22;8501;49.926;8.404;2022-07-29T06:03:49;22.40;98.60
16767;DHT22;8501;49.926;8.404;2022-07-29T06:06:15;22.40;98.20
16767;DHT22;8501;49.926;8.404;2022-07-29T06:08:41;22.50;98.00
16767;DHT22;8501;49.926;8.404;2022-07-29T06:11:06;22.50;97.60
16767;DHT22;8501;49.926;8.404;2022-07-29T06:13:33;22.50;97.20
16767;DHT22;8501;49.926;8.404;2022-07-29T06:15:59;22.60;97.10
16767;DHT22;8501;49.926;8.404;2022-07-29T06:18:25;22.60;97.10
16767;DHT22;8501;49.926;8.404;2022-07-29T06:20:51;22.70;97.00
16767;DHT22;8501;49.926;8.404;2022-07-29T06:23:18;22.70;96.40
16767;DHT22;8501;49.926;8.404;2022-07-29T06:25:43;22.80;96.30
16767;DHT22;8501;49.926;8.404;2022-07-29T06:28:09;22.80;95.80
16767;DHT22;8501;49.926;8.404;2022-07-29T06:30:35;22.80;95.70
16767;DHT22;8501;49.926;8.404;2022-07-29T06:33:00;22.90;95.30
16767;DHT22;8501;49.926;8.404;2022-07-29T06:35:27;22.90;95.20
16767;DHT22;8501;49.926;8.404;2022-07-29T06:37:53;23.00;95.10
16767;DHT22;8501;49.926;8.404;2022-07-29T06:40:19;23.00;94.80
16767;DHT22;8501;49.926;8.404;2022-07-29T06:43:03;23.00;94.70
16767;DHT22;8501;49.926;8.404;2022-07-29T06:45:29;23.10;94.70
16767;DHT22;8501;49.926;8.404;2022-07-29T06:47:54;23.10;94.60
16767;DHT22;8501;49.926;8.404;2022-07-29T06:50:20;23.20;94.50
16767;DHT22;8501;49.926;8.404;2022-07-29T06:55:33;23.20;94.30
16767;DHT22;8501;49.926;8.404;2022-07-29T06:57:59;23.30;94.40
16767;DHT22;8501;49.926;8.404;2022-07-29T07:00:24;23.30;94.30
16767;DHT22;8501;49.926;8.404;2022-07-29T07:02:50;23.40;94.20
16767;DHT22;8501;49.926;8.404;2022-07-29T07:05:15;23.40;93.70
16767;DHT22;8501;49.926;8.404;2022-07-29T07:07:41;23.40;93.70
16767;DHT22;8501;49.926;8.404;2022-07-29T07:10:07;23.50;93.80
16767;DHT22;8501;49.926;8.404;2022-07-29T07:12:32;23.60;93.80
16767;DHT22;8501;49.926;8.404;2022-07-29T07:14:58;23.60;93.50
16767;DHT22;8501;49.926;8.404;2022-07-29T07:17:23;23.60;93.50
16767;DHT22;8501;49.926;8.404;2022-07-29T07:19:49;23.70;93.50
16767;DHT22;8501;49.926;8.404;2022-07-29T07:22:15;23.70;93.70
16767;DHT22;8501;49.926;8.404;2022-07-29T07:24:40;23.70;93.50
16767;DHT22;8501;49.926;8.404;2022-07-29T07:27:06;23.80;93.40
16767;DHT22;8501;49.926;8.404;2022-07-29T07:29:31;23.80;93.40
16767;DHT22;8501;49.926;8.404;2022-07-29T07:31:57;23.90;93.50
16767;DHT22;8501;49.926;8.404;2022-07-29T07:34:23;23.90;93.20
16767;DHT22;8501;49.926;8.404;2022-07-29T07:36:48;23.90;93.10
16767;DHT22;8501;49.926;8.404;2022-07-29T07:39:14;24.00;93.20
16767;DHT22;8501;49.926;8.404;2022-07-29T07:41:39;23.90;93.00
16767;DHT22;8501;49.926;8.404;2022-07-29T07:44:05;23.90;93.20
16767;DHT22;8501;49.926;8.404;2022-07-29T07:46:31;24.00;93.10
16767;DHT22;8501;49.926;8.404;2022-07-29T07:48:56;24.10;93.20
16767;DHT22;8501;49.926;8.404;2022-07-29T07:51:22;24.10;93.50
16767;DHT22;8501;49.926;8.404;2022-07-29T07:53:47;24.20;93.30
16767;DHT22;8501;49.926;8.404;2022-07-29T07:56:15;24.30;93.50
16767;DHT22;8501;49.926;8.404;2022-07-29T07:58:41;24.30;93.80
16767;DHT22;8501;49.926;8.404;2022-07-29T08:01:08;24.40;93.70
16767;DHT22;8501;49.926;8.404;2022-07-29T08:03:34;24.50;93.80
16767;DHT22;8501;49.926;8.404;2022-07-29T08:05:59;24.50;93.60
16767;DHT22;8501;49.926;8.404;2022-07-29T08:08:25;24.40;93.60
16767;DHT22;8501;49.926;8.404;2022-07-29T08:10:51;24.50;93.70
16767;DHT22;8501;49.926;8.404;2022-07-29T08:13:24;24.60;93.80
16767;DHT22;8501;49.926;8.404;2022-07-29T08:15:50;24.70;94.00
16767;DHT22;8501;49.926;8.404;2022-07-29T08:18:37;24.80;94.30
16767;DHT22;8501;49.926;8.404;2022-07-29T08:21:03;24.80;94.00
16767;DHT22;8501;49.926;8.404;2022-07-29T08:23:29;24.80;94.10
16767;DHT22;8501;49.926;8.404;2022-07-29T08:26:04;24.80;94.20
16767;DHT22;8501;49.926;8.404;2022-07-29T08:28:30;24.90;94.00
16767;DHT22;8501;49.926;8.404;2022-07-29T08:30:56;25.00;94.20
16767;DHT22;8501;49.926;8.404;2022-07-29T08:33:21;25.10;94.00
16767;DHT22;8501;49.926;8.404;2022-07-29T08:35:47;25.00;94.00
16767;DHT22;8501;49.926;8.404;2022-07-29T08:38:13;25.00;94.10
16767;DHT22;8501;49.926;8.404;2022-07-29T08:40:39;25.00;94.40
16767;DHT22;8501;49.926;8.404;2022-07-29T08:43:09;25.00;94.80
16767;DHT22;8501;49.926;8.404;2022-07-29T08:45:42;25.10;95.10
16767;DHT22;8501;49.926;8.404;2022-07-29T08:48:11;25.20;94.90
16767;DHT22;8501;49.926;8.404;2022-07-29T08:50:38;25.30;95.20
16767;DHT22;8501;49.926;8.404;2022-07-29T08:53:06;25.40;95.50
16767;DHT22;8501;49.926;8.404;2022-07-29T08:55:32;25.40;95.10
16767;DHT22;8501;49.926;8.404;2022-07-29T08:58:00;25.30;95.00
16767;DHT22;8501;49.926;8.404;2022-07-29T09:00:26;25.40;95.10
16767;DHT22;8501;49.926;8.404;2022-07-29T09:02:57;25.40;94.90
16767;DHT22;8501;49.926;8.404;2022-07-29T09:05:24;25.40;95.20
16767;DHT22;8501;49.926;8.404;2022-07-29T09:07:50;25.50;95.30
16767;DHT22;8501;49.926;8.404;2022-07-29T09:10:16;25.50;95.30
16767;DHT22;8501;49.926;8.404;2022-07-29T09:12:42;25.60;95.60
16767;DHT22;8501;49.926;8.404;2022-07-29T09:15:08;25.70;95.50
16767;DHT22;8501;49.926;8.404;2022-07-29T09:17:53;25.70;96.00
16767;DHT22;8501;49.926;8.404;2022-07-29T09:20:21;25.90;96.00
16767;DHT22;8501;49.926;8.404;2022-07-29T09:25:41;25.90;95.70
16767;DHT22;8501;49.926;8.404;2022-07-29T09:28:12;26.00;96.70
16767;DHT22;8501;49.926;8.404;2022-07-29T09:30:55;26.00;96.80
16767;DHT22;8501;49.926;8.404;2022-07-29T09:33:22;26.10;96.60
16767;DHT22;8501;49.926;8.404;2022-07-29T09:36:04;26.30;96.60
16767;DHT22;8501;49.926;8.404;2022-07-29T09:38:31;26.40;96.60
16767;DHT22;8501;49.926;8.404;2022-07-29T09:40:58;26.40;95.40
16767;DHT22;8501;49.926;8.404;2022-07-29T09:43:23;26.30;95.40
16767;DHT22;8501;49.926;8.404;2022-07-29T09:45:49;26.30;95.90
16767;DHT22;8501;49.926;8.404;2022-07-29T09:48:16;26.40;96.00
16767;DHT22;8501;49.926;8.404;2022-07-29T09:50:43;26.60;95.70
16767;DHT22;8501;49.926;8.404;2022-07-29T09:53:10;26.60;95.50
16767;DHT22;8501;49.926;8.404;2022-07-29T09:55:49;26.50;96.00
16767;DHT22;8501;49.926;8.404;2022-07-29T09:58:20;26.60;95.80
16767;DHT22;8501;49.926;8.404;2022-07-29T10:00:47;26.70;96.00
16767;DHT22;8501;49.926;8.404;2022-07-29T10:03:13;26.80;96.00
16767;DHT22;8501;49.926;8.404;2022-07-29T10:05:39;26.90;95.70
16767;DHT22;8501;49.926;8.404;2022-07-29T10:08:06;26.90;96.00
16767;DHT22;8501;49.926;8.404;2022-07-29T10:10:37;27.00;96.20
16767;DHT22;8501;49.926;8.404;2022-07-29T10:15:36;27.00;95.40
16767;DHT22;8501;49.926;8.404;2022-07-29T10:18:04;27.00;95.40
16767;DHT22;8501;49.926;8.404;2022-07-29T10:20:31;27.00;95.60
16767;DHT22;8501;49.926;8.404;2022-07-29T10:22:57;27.10;95.90
16767;DHT22;8501;49.926;8.404;2022-07-29T10:25:23;27.10;95.60
16767;DHT22;8501;49.926;8.404;2022-07-29T10:27:50;27.10;95.50
16767;DHT22;8501;49.926;8.404;2022-07-29T10:30:17;27.10;95.30
16767;DHT22;8501;49.926;8.404;2022-07-29T10:36:27;27.30;95.10
16767;DHT22;8501;49.926;8.404;2022-07-29T10:44:35;27.50;95.20
16767;DHT22;8501;49.926;8.404;2022-07-29T10:47:04;27.40;95.20
16767;DHT22;8501;49.926;8.404;2022-07-29T10:49:30;27.40;95.10
16767;DHT22;8501;49.926;8.404;2022-07-29T10:57:18;27.60;95.00
16767;DHT22;8501;49.926;8.404;2022-07-29T10:59:52;27.80;95.10
16767;DHT22;8501;49.926;8.404;2022-07-29T11:05:12;28.00;94.60
16767;DHT22;8501;49.926;8.404;2022-07-29T11:10:25;28.00;94.60
16767;DHT22;8501;49.926;8.404;2022-07-29T11:12:51;28.10;94.70
16767;DHT22;8501;49.926;8.404;2022-07-29T11:15:21;28.20;94.60
16767;DHT22;8501;49.926;8.404;2022-07-29T11:20:45;28.20;94.90
16767;DHT22;8501;49.926;8.404;2022-07-29T11:23:30;28.40;94.80
16767;DHT22;8501;49.926;8.404;2022-07-29T11:28:50;28.40;94.60
16767;DHT22;8501;49.926;8.404;2022-07-29T11:31:38;28.40;94.80
16767;DHT22;8501;49.926;8.404;2022-07-29T11:40:22;28.50;94.20
16767;DHT22;8501;49.926;8.404;2022-07-29T11:45:18;28.60;94.50
16767;DHT22;8501;49.926;8.404;2022-07-29T11:47:51;28.50;94.10
16767;DHT22;8501;49.926;8.404;2022-07-29T11:50:36;28.50;94.10
16767;DHT22;8501;49.926;8.404;2022-07-29T11:53:10;28.60;94.40
16767;DHT22;8501;49.926;8.404;2022-07-29T11:55:38;28.60;94.40
16767;DHT22;8501;49.926;8.404;2022-07-29T11:58:04;28.50;94.40
16767;DHT22;8501;49.926;8.404;2022-07-29T12:00:33;28.70;94.70
16767;DHT22;8501;49.926;8.404;2022-07-29T12:03:02;28.80;94.40
16767;DHT22;8501;49.926;8.404;2022-07-29T12:05:36;28.80;94.40
16767;DHT22;8501;49.926;8.404;2022-07-29T12:08:09;28.90;94.10
16767;DHT22;8501;49.926;8.404;2022-07-29T12:10:35;28.90;93.70
16767;DHT22;8501;49.926;8.404;2022-07-29T12:13:01;28.80;93.80
16767;DHT22;8501;49.926;8.404;2022-07-29T12:15:26;28.80;93.70
16767;DHT22;8501;49.926;8.404;2022-07-29T12:17:52;28.90;94.20
16767;DHT22;8501;49.926;8.404;2022-07-29T12:20:28;29.10;93.70
16767;DHT22;8501;49.926;8.404;2022-07-29T12:25:42;29.10;93.70
16767;DHT22;8501;49.926;8.404;2022-07-29T12:28:10;29.10;93.40
16767;DHT22;8501;49.926;8.404;2022-07-29T12:33:18;29.30;93.20
16767;DHT22;8501;49.926;8.404;2022-07-29T12:35:48;29.30;93.00
16767;DHT22;8501;49.926;8.404;2022-07-29T12:38:14;29.40;92.70
16767;DHT22;8501;49.926;8.404;2022-07-29T12:40:40;29.30;93.00
16767;DHT22;8501;49.926;8.404;2022-07-29T12:43:12;29.50;93.10
16767;DHT22;8501;49.926;8.404;2022-07-29T12:45:39;29.50;93.30
16767;DHT22;8501;49.926;8.404;2022-07-29T12:48:06;29.60;93.80
16767;DHT22;8501;49.926;8.404;2022-07-29T12:50:35;29.70;93.40
16767;DHT22;8501;49.926;8.404;2022-07-29T12:53:13;29.70;92.60
16767;DHT22;8501;49.926;8.404;2022-07-29T12:55:41;29.60;92.60
16767;DHT22;8501;49.926;8.404;2022-07-29T12:58:07;29.70;93.10
16767;DHT22;8501;49.926;8.404;2022-07-29T13:00:33;29.90;92.80
16767;DHT22;8501;49.926;8.404;2022-07-29T13:03:00;29.90;92.40
16767;DHT22;8501;49.926;8.404;2022-07-29T13:05:43;29.90;92.30
16767;DHT22;8501;49.926;8.404;2022-07-29T13:08:16;30.00;91.90
16767;DHT22;8501;49.926;8.404;2022-07-29T13:10:42;30.00;91.90
16767;DHT22;8501;49.926;8.404;2022-07-29T13:13:15;30.00;91.70
16767;DHT22;8501;49.926;8.404;2022-07-29T13:15:46;30.10;91.10
16767;DHT22;8501;49.926;8.404;2022-07-29T13:18:31;30.20;91.10
16767;DHT22;8501;49.926;8.404;2022-07-29T13:21:14;30.10;90.90
16767;DHT22;8501;49.926;8.404;2022-07-29T13:23:40;30.00;91.70
16767;DHT22;8501;49.926;8.404;2022-07-29T13:26:10;29.90;91.80
16767;DHT22;8501;49.926;8.404;2022-07-29T13:28:37;29.80;91.90
16767;DHT22;8501;49.926;8.404;2022-07-29T13:31:03;29.80;92.10
16767;DHT22;8501;49.926;8.404;2022-07-29T13:33:28;29.80;92.10
16767;DHT22;8501;49.926;8.404;2022-07-29T13:38:23;29.80;91.50
16767;DHT22;8501;49.926;8.404;2022-07-29T13:40:48;30.00;91.60
16767;DHT22;8501;49.926;8.404;2022-07-29T13:43:14;30.00;91.10
16767;DHT22;8501;49.926;8.404;2022-07-29T13:45:40;30.10;91.10
16767;DHT22;8501;49.926;8.404;2022-07-29T13:48:06;30.10;91.20
16767;DHT22;8501;49.926;8.404;2022-07-29T13:50:32;30.10;91.60
16767;DHT22;8501;49.926;8.404;2022-07-29T13:52:58;30.20;91.60
16767;DHT22;8501;49.926;8.404;2022-07-29T13:55:24;30.20;90.80
16767;DHT22;8501;49.926;8.404;2022-07-29T13:57:49;30.00;91.20
16767;DHT22;8501;49.926;8.404;2022-07-29T14:00:15;30.00;91.70
16767;DHT22;8501;49.926;8.404;2022-07-29T14:02:41;30.00;91.40
16767;DHT22;8501;49.926;8.404;2022-07-29T14:05:08;30.00;91.30
16767;DHT22;8501;49.926;8.404;2022-07-29T14:07:35;29.90;91.20
16767;DHT22;8501;49.926;8.404;2022-07-29T14:10:01;29.90;91.70
16767;DHT22;8501;49.926;8.404;2022-07-29T14:12:27;30.00;91.60
16767;DHT22;8501;49.926;8.404;2022-07-29T14:14:53;29.90;92.40
16767;DHT22;8501;49.926;8.404;2022-07-29T14:17:19;29.90;91.50
16767;DHT22;8501;49.926;8.404;2022-07-29T14:19:45;29.90;91.30
16767;DHT22;8501;49.926;8.404;2022-07-29T14:22:10;29.90;91.60
16767;DHT22;8501;49.926;8.404;2022-07-29T14:24:36;29.80;92.20
16767;DHT22;8501;49.926;8.404;2022-07-29T14:27:02;29.70;92.40
16767;DHT22;8501;49.926;8.404;2022-07-29T14:29:28;29.70;92.70
16767;DHT22;8501;49.926;8.404;2022-07-29T14:31:53;29.60;92.80
16767;DHT22;8501;49.926;8.404;2022-07-29T14:34:19;29.60;93.10
16767;DHT22;8501;49.926;8.404;2022-07-29T14:36:44;29.60;93.40
16767;DHT22;8501;49.926;8.404;2022-07-29T14:39:11;29.50;93.90
16767;DHT22;8501;49.926;8.404;2022-07-29T14:41:36;29.50;94.30
16767;DHT22;8501;49.926;8.404;2022-07-29T14:44:03;29.50;94.20
16767;DHT22;8501;49.926;8.404;2022-07-29T14:46:29;29.40;93.80
16767;DHT22;8501;49.926;8.404;2022-07-29T14:48:54;29.40;93.60
16767;DHT22;8501;49.926;8.404;2022-07-29T14:51:20;29.40;93.40
16767;DHT22;8501;49.926;8.404;2022-07-29T14:53:46;29.40;93.10
16767;DHT22;8501;49.926;8.404;2022-07-29T14:56:12;29.40;93.20
16767;DHT22;8501;49.926;8.404;2022-07-29T14:58:38;29.30;93.30
16767;DHT22;8501;49.926;8.404;2022-07-29T15:01:03;29.30;93.50
16767;DHT22;8501;49.926;8.404;2022-07-29T15:03:29;29.30;93.60
16767;DHT22;8501;49.926;8.404;2022-07-29T15:05:54;29.30;93.70
16767;DHT22;8501;49.926;8.404;2022-07-29T15:08:20;29.30;93.80
16767;DHT22;8501;49.926;8.404;2022-07-29T15:10:46;29.30;94.00
16767;DHT22;8501;49.926;8.404;2022-07-29T15:13:11;29.30;94.00
16767;DHT22;8501;49.926;8.404;2022-07-29T15:15:37;29.30;94.00
16767;DHT22;8501;49.926;8.404;2022-07-29T15:18:03;29.40;94.00
16767;DHT22;8501;49.926;8.404;2022-07-29T15:20:28;29.40;93.90
16767;DHT22;8501;49.926;8.404;2022-07-29T15:22:55;29.40;93.90
16767;DHT22;8501;49.926;8.404;2022-07-29T15:25:24;29.40;93.40
16767;DHT22;8501;49.926;8.404;2022-07-29T15:27:50;29.50;93.40
16767;DHT22;8501;49.926;8.404;2022-07-29T15:30:16;29.40;93.10
16767;DHT22;8501;49.926;8.404;2022-07-29T15:32:43;29.40;92.80
16767;DHT22;8501;49.926;8.404;2022-07-29T15:35:09;29.40;93.00
16767;DHT22;8501;49.926;8.404;2022-07-29T15:37:38;29.40;93.10
16767;DHT22;8501;49.926;8.404;2022-07-29T15:40:05;29.30;94.00
16767;DHT22;8501;49.926;8.404;2022-07-29T15:42:31;29.20;95.00
16767;DHT22;8501;49.926;8.404;2022-07-29T15:44:57;29.00;95.30
16767;DHT22;8501;49.926;8.404;2022-07-29T15:47:23;29.00;95.50
16767;DHT22;8501;49.926;8.404;2022-07-29T15:49:49;28.80;95.20
16767;DHT22;8501;49.926;8.404;2022-07-29T15:52:18;28.80;95.10
16767;DHT22;8501;49.926;8.404;2022-07-29T15:54:44;28.70;95.00
16767;DHT22;8501;49.926;8.404;2022-07-29T15:57:10;28.60;94.80
16767;DHT22;8501;49.926;8.404;2022-07-29T15:59:36;28.60;94.90
16767;DHT22;8501;49.926;8.404;2022-07-29T16:02:02;28.60;94.30
16767;DHT22;8501;49.926;8.404;2022-07-29T16:04:28;28.60;94.10
16767;DHT22;8501;49.926;8.404;2022-07-29T16:06:54;28.60;94.20
16767;DHT22;8501;49.926;8.404;2022-07-29T16:09:20;28.60;94.40
16767;DHT22;8501;49.926;8.404;2022-07-29T16:11:46;28.60;94.90
16767;DHT22;8501;49.926;8.404;2022-07-29T16:14:16;28.50;95.90
16767;DHT22;8501;49.926;8.404;2022-07-29T16:16:41;28.50;96.50
16767;DHT22;8501;49.926;8.404;2022-07-29T16:19:07;28.50;96.90
16767;DHT22;8501;49.926;8.404;2022-07-29T16:21:34;28.50;96.80
16767;DHT22;8501;49.926;8.404;2022-07-29T16:24:00;28.50;96.20
16767;DHT22;8501;49.926;8.404;2022-07-29T16:26:25;28.50;95.70
16767;DHT22;8501;49.926;8.404;2022-07-29T16:28:51;28.50;95.70
16767;DHT22;8501;49.926;8.404;2022-07-29T16:31:17;28.50;95.50
16767;DHT22;8501;49.926;8.404;2022-07-29T16:33:46;28.50;94.40
16767;DHT22;8501;49.926;8.404;2022-07-29T16:36:11;28.50;93.70
16767;DHT22;8501;49.926;8.404;2022-07-29T16:38:37;28.50;93.90
16767;DHT22;8501;49.926;8.404;2022-07-29T16:41:02;28.60;94.20
16767;DHT22;8501;49.926;8.404;2022-07-29T16:43:28;28.50;94.00
16767;DHT22;8501;49.926;8.404;2022-07-29T16:45:54;28.50;94.10
16767;DHT22;8501;49.926;8.404;2022-07-29T16:48:19;28.50;93.90
16767;DHT22;8501;49.926;8.404;2022-07-29T16:50:45;28.50;93.90